Latest Coastal Weather Observations for Larapuna (Eddystone Point)

IDT60701

Issued at 10:03 am EST Wednesday 29 June 2016 (issued every 10 minutes, with the page automatically refreshed every 10 minutes)

About coastal observations | Map of coastal stations | Coastal observations for TAS | Marine services | Other Formats
Station Details ID: 092045 Name: LARAPUNA (EDDYSTONE POINT) Lat: -40.99 Lon: 148.35 Height: 19.7 m
Data from the previous 72 hours. | See also: Recent months at Larapuna (Eddystone Point)
Date/Time
EST
Temp
°C
Wind Pressure Rain since
9am
mm
Weather Cloud Vis
km
Sea
Height
m
Swell
Dir  Spd
kts
Gust
kts
hPa Trend Height
m
Period
s
Dir
29/10:00am 14.7 W 6 11 1022.1 - 0.0 - - - - - - -
29/09:30am 13.1 W 5 9 1021.9 - 0.0 - - - - - - -
29/09:00am 11.9 NW 6 10 1021.8 - 0.0 - - - - - - -
29/08:30am 11.7 WNW 12 19 1021.4 - 0.0 - - - - - - -
29/08:00am 11.2 W 5 9 1021.5 - 0.0 - - - - - - -
29/07:30am 11.4 W 7 11 1021.3 - 0.0 - - - - - - -
29/07:00am 11.5 W 11 17 1020.7 - 0.0 - - - - - - -
29/06:30am 11.6 W 18 26 1020.1 - 0.0 - - - - - - -
29/06:00am 11.7 WNW 16 24 1019.7 - 0.0 - - - - - - -
29/05:30am 11.8 WNW 12 18 1020.1 - 0.0 - - - - - - -
29/05:00am 11.7 W 7 14 1019.7 - 0.0 - - - - - - -
29/04:30am 12.5 WNW 14 22 1019.2 - 0.0 - - - - - - -
29/04:19am 12.6 WNW 16 26 1019.0 - 0.0 - - - - - - -
29/04:00am 12.7 WNW 13 20 1018.9 - 0.0 - - - - - - -
29/03:30am 12.6 WNW 14 22 1018.9 - 0.0 - - - - - - -
29/03:00am 12.4 WNW 11 17 1018.9 - 0.0 - - - - - - -
29/02:30am 12.1 WNW 12 18 1018.8 - 0.0 - - - - - - -
29/02:00am 11.8 WNW 11 18 1018.8 - 0.0 - - - - - - -
29/01:30am 11.7 WNW 10 16 1018.9 - 0.0 - - - - - - -
29/01:00am 11.9 WNW 12 19 1019.1 - 0.0 - - - - - - -
29/12:30am 12.5 NW 13 18 1018.7 - 0.0 - - - - - - -
29/12:11am 12.8 WNW 15 27 1018.6 - 0.0 - - - - - - -
29/12:00am 13.0 WNW 11 19 1018.8 - 0.0 - - - - - - -
 
Date/Time
EST
Temp
°C
Wind Pressure Rain since
9am
mm
Weather Cloud Vis
km
Sea
Height
m
Swell
Dir  Spd
kts
Gust
kts
hPa Trend Height
m
Period
s
Dir
28/11:30pm 12.8 WNW 14 29 1018.8 - 0.0 - - - - - - -
28/11:01pm 12.8 WNW 17 27 1018.8 - 0.0 - - - - - - -
28/11:00pm 12.8 WNW 18 27 1018.8 - 0.0 - - - - - - -
28/10:47pm 12.7 WNW 15 26 1018.9 - 0.0 - - - - - - -
28/10:30pm 12.6 WNW 13 21 1018.9 - 0.0 - - - - - - -
28/10:03pm 12.8 WNW 18 28 1018.8 - 0.0 - - - - - - -
28/10:00pm 12.8 WNW 19 26 1018.8 - 0.0 - - - - - - -
28/09:30pm 12.7 WNW 20 30 1018.3 - 0.0 - - - - - - -
28/09:28pm 12.7 WNW 19 30 1018.3 - 0.0 - - - - - - -
28/09:00pm 12.8 WNW 20 27 1018.3 - 0.0 - - - - - - -
28/08:34pm 12.5 W 17 27 1018.0 - 0.0 - - - - - - -
28/08:30pm 12.4 W 18 27 1018.0 - 0.0 - - - - - - -
28/08:10pm 12.4 WNW 17 27 1018.2 - 0.0 - - - - - - -
28/08:00pm 12.3 WNW 18 26 1018.1 - 0.0 - - - - - - -
28/07:53pm 12.3 WNW 19 29 1018.0 - 0.0 - - - - - - -
28/07:30pm 12.4 WNW 22 29 1017.7 - 0.0 - - - - - - -
28/07:13pm 12.5 WNW 19 29 1017.7 - 0.0 - - - - - - -
28/07:00pm 12.7 WNW 18 27 1017.7 - 0.0 - - - - - - -
28/06:30pm 12.8 WNW 19 27 1017.6 - 0.0 - - - - - - -
28/06:00pm 12.8 NW 18 25 1017.5 - 0.0 - - - - - - -
28/05:30pm 13.0 WNW 21 28 1017.1 - 0.0 - - - - - - -
28/05:00pm 13.1 NW 19 25 1017.0 - 0.0 - - - - - - -
28/04:30pm 13.5 NW 18 25 1017.0 - 0.0 - - - - - - -
28/04:00pm 13.7 NW 15 21 1016.9 - 0.0 - - - - - - -
28/03:30pm 14.0 NW 15 23 1016.9 - 0.0 - - - - - - -
28/03:00pm 14.3 NW 14 19 1016.7 - 0.0 - - - - - - -
28/02:30pm 13.9 NW 15 20 1016.7 - 0.0 - - - - - - -
28/02:00pm 14.1 WNW 17 27 1016.3 - 0.0 - - - - - - -
28/01:51pm 14.1 NW 17 27 1016.4 - 0.0 - - - - - - -
28/01:30pm 15.0 WNW 13 18 1016.4 - 0.0 - - - - - - -
28/01:00pm 14.4 NW 13 22 1016.5 - 0.0 - - - - - - -
28/12:30pm 14.0 WNW 17 24 1016.6 - 0.0 - - - - - - -
28/12:00pm 13.6 WNW 15 24 1016.9 - 0.0 - - - - - - -
28/11:30am 13.2 NW 13 18 1017.2 - 0.0 - - - - - - -
28/11:00am 13.9 WNW 20 26 1016.7 - 0.0 - - - - - - -
28/10:30am 13.2 WNW 17 23 1017.1 - 0.0 - - - - - - -
28/10:00am 12.8 NW 17 23 1016.7 - 0.0 - - - - - - -
28/09:30am 12.2 NW 13 15 1017.1 - 0.0 - - - - - - -
28/09:00am 11.7 NW 11 14 1016.9 - 0.6 - - - - - - -
28/08:30am 11.3 NW 10 13 1016.8 - 0.6 - - - - - - -
28/08:00am 10.5 WNW 10 16 1016.1 - 0.6 - - - - - - -
28/07:30am 9.9 NNW 6 10 1015.9 - 0.6 - - - - - - -
28/07:00am 10.1 NW 8 11 1015.7 - 0.6 - - - - - - -
28/06:30am 10.0 NW 11 15 1015.4 - 0.6 - - - - - - -
28/06:00am 10.1 NW 14 17 1015.2 - 0.6 - - - - - - -
28/05:30am 10.1 WNW 12 18 1014.9 - 0.6 - - - - - - -
28/05:00am 9.8 NW 11 14 1014.7 - 0.6 - - - - - - -
28/04:30am 9.4 NW 10 13 1014.6 - 0.6 - - - - - - -
28/04:00am 9.0 NNW 9 11 1014.5 - 0.6 - - - - - - -
28/03:30am 8.3 NNW 6 9 1014.6 - 0.6 - - - - - - -
28/03:00am 8.6 NW 11 15 1014.6 - 0.6 - - - - - - -
28/02:30am 8.2 NW 10 14 1014.6 - 0.6 - - - - - - -
28/02:00am 8.3 NNW 8 11 1014.7 - 0.6 - - - - - - -
28/01:30am 7.9 NNW 7 11 1014.8 - 0.6 - - - - - - -
28/01:00am 8.1 NW 9 12 1014.8 - 0.6 - - - - - - -
28/12:30am 7.6 NW 7 9 1015.0 - 0.6 - - - - - - -
28/12:00am 7.6 NW 9 10 1015.1 - 0.6 - - - - - - -
 
Date/Time
EST
Temp
°C
Wind Pressure Rain since
9am
mm
Weather Cloud Vis
km
Sea
Height
m
Swell
Dir  Spd
kts
Gust
kts
hPa Trend Height
m
Period
s
Dir
27/11:30pm 7.2 NNW 5 7 1015.1 - 0.6 - - - - - - -
27/11:00pm 7.1 W 5 6 1015.0 - 0.6 - - - - - - -
27/10:30pm 7.8 NNW 5 7 1015.0 - 0.6 - - - - - - -
27/10:00pm 8.3 N 7 10 1014.9 - 0.6 - - - - - - -
27/09:30pm 8.2 NNW 7 9 1014.7 - 0.6 - - - - - - -
27/09:00pm 8.5 N 6 8 1014.7 - 0.6 - - - - - - -
27/08:30pm 8.1 NNW 6 7 1014.4 - 0.6 - - - - - - -
27/08:00pm 8.2 WNW 8 9 1014.3 - 0.6 - - - - - - -
27/07:30pm 8.7 WNW 12 15 1014.1 - 0.6 - - - - - - -
27/07:00pm 9.0 WNW 11 14 1013.8 - 0.6 - - - - - - -
27/06:30pm 9.4 WNW 12 15 1013.6 - 0.6 - - - - - - -
27/06:00pm 9.2 W 13 17 1013.0 - 0.6 - - - - - - -
27/05:30pm 9.4 WNW 12 17 1012.7 - 0.6 - - - - - - -
27/05:00pm 9.9 WNW 10 14 1012.3 - 0.6 - - - - - - -
27/04:30pm 11.1 WNW 11 14 1012.1 - 0.6 - - - - - - -
27/04:00pm 12.1 NW 14 17 1011.7 - 0.6 - - - - - - -
27/03:30pm 12.9 NW 13 16 1011.7 - 0.6 - - - - - - -
27/03:00pm 13.4 WNW 10 14 1011.6 - 0.6 - - - - - - -
27/02:30pm 14.6 E 3 5 1011.4 - 0.6 - - - - - - -
27/02:00pm 13.4 WSW 2 4 1011.1 - 0.6 - - - - - - -
27/01:30pm 12.8 SE 4 7 1011.1 - 0.6 - - - - - - -
27/01:00pm 13.0 SE 7 7 1011.2 - 0.6 - - - - - - -
27/12:30pm 14.0 SSW 9 10 1011.3 - 0.6 - - - - - - -
27/12:00pm 13.0 SW 7 9 1011.5 - 0.6 - - - - - - -
27/11:30am 12.5 WNW 6 9 1011.7 - 0.6 - - - - - - -
27/11:00am 10.9 W 6 9 1012.0 - 0.6 - - - - - - -
27/10:30am 11.1 WSW 6 8 1012.2 - 0.6 - - - - - - -
27/10:00am 11.2 WNW 6 9 1012.3 - 0.4 - - - - - - -
27/09:30am 10.9 WNW 8 12 1012.4 - 0.0 - - - - - - -
27/09:00am 10.6 NW 8 11 1012.3 - 0.4 Recent precip. - - - - - -
27/08:30am 10.5 NW 6 8 1012.2 - 0.2 - - - - - - -
27/08:00am 10.0 WNW 8 10 1012.1 - 0.2 - - - - - - -
27/07:30am 9.9 WNW 9 12 1012.0 - 0.0 - - - - - - -
27/07:00am 10.0 WNW 12 17 1011.8 - 0.0 - - - - - - -
27/06:30am 9.9 WNW 13 18 1011.6 - 0.0 - - - - - - -
27/06:00am 10.0 WNW 12 15 1011.2 - 0.0 - - - - - - -
27/05:30am 10.1 WNW 13 19 1011.0 - 0.0 - - - - - - -
27/05:00am 10.7 NW 10 13 1010.9 - 0.0 - - - - - - -
27/04:30am 9.8 NW 10 13 1010.6 - 0.0 - - - - - - -
27/04:00am 9.9 NNW 10 13 1010.7 - 0.0 - - - - - - -
27/03:30am 9.7 NW 10 14 1011.0 - 0.0 - - - - - - -
27/03:00am 9.8 NNW 10 13 1011.3 - 0.0 - - - - - - -
27/02:30am 9.2 NW 9 12 1011.2 - 0.0 - - - - - - -
27/02:00am 9.3 NW 11 13 1011.4 - 0.0 - - - - - - -
27/01:30am 9.7 NW 10 14 1011.4 - 0.0 - - - - - - -
27/01:00am 9.9 NW 11 15 1011.6 - 0.0 - - - - - - -
27/12:30am 10.1 NW 12 17 1011.7 - 0.0 - - - - - - -
27/12:00am 10.1 NW 14 20 1012.0 - 0.0 - - - - - - -
 
Date/Time
EST
Temp
°C
Wind Pressure Rain since
9am
mm
Weather Cloud Vis
km
Sea
Height
m
Swell
Dir  Spd
kts
Gust
kts
hPa Trend Height
m
Period
s
Dir
26/11:30pm 9.8 NW 11 16 1012.2 - 0.0 - - - - - - -
26/11:00pm 9.8 WNW 10 13 1012.3 - 0.0 - - - - - - -
26/10:30pm 9.4 WNW 12 18 1012.2 - 0.0 - - - - - - -
26/10:00pm 9.6 NW 10 13 1012.4 - 0.0 - - - - - - -
26/09:30pm 9.6 NW 11 17 1012.5 - 0.0 - - - - - - -
26/09:00pm 9.4 NW 13 17 1012.8 - 0.0 - - - - - - -
26/08:30pm 9.0 NW 8 12 1013.0 - 0.0 - - - - - - -
26/08:00pm 9.1 WNW 8 11 1013.2 - 0.0 - - - - - - -
26/07:30pm 9.0 WNW 7 12 1013.1 - 0.0 - - - - - - -
26/07:00pm 9.2 WNW 6 11 1013.0 - 0.0 - - - - - - -
26/06:30pm 9.7 WNW 7 11 1012.9 - 0.0 - - - - - - -
26/06:00pm 9.8 WNW 7 13 1013.0 - 0.0 - - - - - - -
26/05:30pm 10.1 WNW 10 15 1012.9 - 0.0 - - - - - - -
26/05:00pm 10.6 WNW 11 16 1012.8 - 0.0 - - - - - - -
26/04:30pm 11.1 WNW 13 18 1012.9 - 0.0 - - - - - - -
26/04:00pm 11.8 WNW 13 19 1013.0 - 0.0 - - - - - - -
26/03:30pm 12.5 WNW 13 20 1012.9 - 0.0 - - - - - - -
26/03:01pm 12.9 WNW 15 25 1012.8 - 0.0 - - - - - - -
26/03:00pm 13.0 WNW 13 21 1012.8 - 0.0 - - - - - - -
26/02:30pm 14.1 W 14 21 1013.1 - 0.0 - - - - - - -
26/02:00pm 14.1 WSW 13 17 1013.4 - 0.0 - - - - - - -
26/01:30pm 13.9 W 14 22 1013.7 - 0.0 - - - - - - -
26/01:04pm 13.9 WNW 15 25 1014.1 - 0.0 - - - - - - -
26/01:00pm 13.6 W 13 20 1014.1 - 0.0 - - - - - - -
26/12:30pm 13.0 W 18 26 1014.4 - 0.0 - - - - - - -
26/12:00pm 12.4 W 16 25 1014.8 - 0.0 - - - - - - -
26/11:55am 13.4 W 15 25 1014.9 - 0.0 - - - - - - -
26/11:30am 12.9 W 19 27 1015.1 - 0.0 - - - - - - -
26/11:00am 12.6 W 18 25 1015.4 - 0.0 - - - - - - -
26/10:30am 12.0 W 18 28 1015.7 - 0.0 - - - - - - -
26/10:24am 11.9 W 15 25 1015.8 - 0.0 - - - - - - -

Other Formats:

Comma delimited format used in spreadsheet applications
http://www.bom.gov.au/fwo/IDT60701/IDT60701.94983.axf

JavaScript Object Notation format (JSON) in row-major order
http://www.bom.gov.au/fwo/IDT60701/IDT60701.94983.json